Time;durP1;ratioP1;P1;durP2;ratioP2;P2;SDS_P1;SDS_P2;PMS_P1;PMS_P2;Temp;Humidity;BMP_temperature;BMP_pressure;BME280_temperature;BME280_humidity;BME280_pressure;Samples;Min_cycle;Max_cycle;Signal;HPM_P1;HPM_P2
2023/10/15 00:01:45;;;;;;;25.67;12.80;;;;;;;22.00;59.75;100697.16;5987175;23;20451;-77
2023/10/15 00:04:15;;;;;;;22.23;12.88;;;;;;;22.05;61.04;100697.34;5964079;23;20020;-79
2023/10/15 00:06:42;;;;;;;19.00;11.68;;;;;;;21.66;62.47;100618.81;5979523;23;20261;-79
2023/10/15 00:09:13;;;;;;;26.02;13.27;;;;;;;22.18;60.39;100700.84;5968244;23;20058;-79
2023/10/15 00:11:40;;;;;;;22.73;11.55;;;;;;;22.17;60.37;100699.19;5977938;23;20535;-79
2023/10/15 00:14:07;;;;;;;20.33;11.25;;;;;;;22.23;62.32;100697.56;5981472;23;20114;-77
2023/10/15 00:16:34;;;;;;;20.77;11.88;;;;;;;22.30;62.77;100686.72;5996895;23;20435;-76
2023/10/15 00:19:12;;;;;;;22.70;12.40;;;;;;;22.40;61.40;100696.09;5974436;23;20026;-77
2023/10/15 00:21:39;;;;;;;18.98;11.73;;;;;;;22.36;62.74;100670.50;5979520;23;20084;-76
2023/10/15 00:24:10;;;;;;;22.60;12.88;;;;;;;22.47;60.49;100684.41;5968518;23;20024;-75
2023/10/15 00:26:38;;;;;;;21.88;13.05;;;;;;;22.37;61.77;100674.03;5973669;23;20084;-76
2023/10/15 00:29:08;;;;;;;19.40;11.57;;;;;;;22.37;62.44;100669.44;5973665;23;20346;-77
2023/10/15 00:31:35;;;;;;;18.42;11.60;;;;;;;22.34;62.38;100650.13;5942702;23;20233;-77
2023/10/15 00:34:03;;;;;;;19.52;12.27;;;;;;;22.46;62.75;100669.22;5985480;23;20111;-76
2023/10/15 00:36:30;;;;;;;20.30;12.10;;;;;;;22.24;61.79;100630.81;5983506;23;20024;-77
2023/10/15 00:38:57;;;;;;;25.35;13.48;;;;;;;22.34;60.98;100647.41;5977259;23;20339;-76
2023/10/15 00:41:32;;;;;;;17.98;12.50;;;;;;;22.31;61.02;100629.75;5956686;23;20428;-77
2023/10/15 00:44:09;;;;;;;22.77;12.43;;;;;;;22.23;59.92;100634.53;5936176;23;20362;-77
2023/10/15 00:46:37;;;;;;;18.23;11.63;;;;;;;22.36;61.27;100651.56;5925778;23;20048;-76
2023/10/15 00:49:48;;;;;;;25.27;11.70;;;;;;;22.31;61.29;100618.09;5995401;23;20039;-77
2023/10/15 00:51:55;;;;;;;19.30;11.35;;;;;;;22.43;61.44;100639.88;5959794;23;20030;-78
2023/10/15 00:54:23;;;;;;;25.02;12.48;;;;;;;22.25;61.40;100614.34;5997057;23;20548;-77
2023/10/15 00:56:54;;;;;;;20.63;12.10;;;;;;;22.38;60.94;100627.03;5962585;23;20027;-78
2023/10/15 00:59:21;;;;;;;27.55;12.23;;;;;;;22.40;59.82;100639.28;5972405;23;20095;-78
2023/10/15 01:01:54;;;;;;;17.40;11.02;;;;;;;22.30;60.08;100630.75;5960854;23;20030;-78
2023/10/15 01:04:25;;;;;;;20.20;11.32;;;;;;;22.29;61.16;100612.06;6021470;23;20019;-78
2023/10/15 01:06:55;;;;;;;21.00;12.30;;;;;;;22.26;61.12;100623.28;5996861;23;20023;-79
2023/10/15 01:09:28;;;;;;;21.58;11.65;;;;;;;22.12;60.19;100603.56;5996944;23;20027;-78
2023/10/15 01:11:56;;;;;;;17.98;11.25;;;;;;;22.17;61.52;100619.97;5990735;23;20019;-78
2023/10/15 01:14:37;;;;;;;18.27;12.20;;;;;;;22.11;60.50;100610.00;6049858;23;20023;-78
2023/10/15 01:17:07;;;;;;;22.75;12.10;;;;;;;21.85;60.79;100579.31;6024897;23;20018;-78
2023/10/15 01:19:35;;;;;;;23.83;12.05;;;;;;;21.85;60.75;100589.28;6007171;23;20184;-78
2023/10/15 01:22:17;;;;;;;21.20;11.82;;;;;;;21.64;60.83;100568.72;6009823;23;20241;-77
2023/10/15 01:24:49;;;;;;;22.48;12.60;;;;;;;21.60;60.94;100581.81;6007912;23;20726;-77
2023/10/15 01:27:22;;;;;;;19.92;12.90;;;;;;;21.55;61.28;100587.00;6019954;23;20299;-78
2023/10/15 01:29:50;;;;;;;23.10;12.90;;;;;;;21.51;61.75;100577.69;5958960;23;20417;-78
2023/10/15 01:32:22;;;;;;;26.23;13.27;;;;;;;21.49;61.72;100575.19;5982595;23;20537;-78
2023/10/15 01:34:50;;;;;;;19.00;11.93;;;;;;;21.44;62.07;100580.38;5960787;23;20034;-78
2023/10/15 01:39:52;;;;;;;19.80;10.30;;;;;;;21.37;64.50;100543.59;6034360;23;20023;-79
2023/10/15 01:53:04;;;;;;;17.17;11.40;;;;;;;21.85;63.60;100600.91;6022479;23;20023;-77
2023/10/15 01:55:35;;;;;;;30.35;11.73;;;;;;;21.87;63.35;100587.19;6012196;23;20462;-78
2023/10/15 01:58:04;;;;;;;20.35;11.80;;;;;;;21.92;61.83;100584.69;6010300;23;20023;-77
2023/10/15 02:03:10;;;;;;;20.80;11.68;;;;;;;21.49;61.57;100553.59;6036002;23;20031;-78
2023/10/15 02:05:46;;;;;;;17.50;10.52;;;;;;;21.62;63.17;100557.31;6019516;23;20117;-77
2023/10/15 02:08:22;;;;;;;19.63;11.50;;;;;;;21.41;61.53;100534.91;6018910;23;20019;-77
2023/10/15 02:10:52;;;;;;;16.50;11.20;;;;;;;21.06;61.88;100494.59;6017750;23;20019;-77
2023/10/15 02:13:30;;;;;;;20.60;12.13;;;;;;;21.31;61.95;100553.34;6006938;23;20026;-77
2023/10/15 02:16:07;;;;;;;23.70;11.88;;;;;;;21.24;62.30;100560.59;6040863;23;20045;-76
2023/10/15 02:18:35;;;;;;;22.23;11.43;;;;;;;20.98;62.59;100558.75;6007347;23;20073;-76
2023/10/15 02:21:02;;;;;;;26.27;11.88;;;;;;;20.91;63.12;100554.16;6018702;23;20090;-77
2023/10/15 02:23:33;;;;;;;16.65;11.82;;;;;;;20.98;63.31;100570.38;6016319;23;20029;-78
2023/10/15 02:26:00;;;;;;;22.27;12.25;;;;;;;20.95;63.95;100567.22;6016556;23;20526;-77
2023/10/15 02:28:35;;;;;;;20.17;12.65;;;;;;;20.86;63.84;100564.75;6009635;23;20023;-78
2023/10/15 02:33:30;;;;;;;21.48;12.02;;;;;;;20.96;64.04;100563.50;6038196;23;20031;-78
2023/10/15 02:35:59;;;;;;;21.52;12.05;;;;;;;20.98;63.78;100562.28;6016045;23;20383;-77
2023/10/15 02:38:36;;;;;;;25.33;11.70;;;;;;;20.92;63.87;100560.38;6007060;23;20019;-78
2023/10/15 02:41:06;;;;;;;20.20;11.80;;;;;;;20.88;64.02;100561.84;6044050;23;20451;-78
2023/10/15 02:43:40;;;;;;;18.67;11.88;;;;;;;20.80;64.52;100552.09;5999589;23;20123;-78
2023/10/15 02:46:24;;;;;;;23.80;12.43;;;;;;;20.46;64.19;100504.44;6017507;23;20459;-77
2023/10/15 02:48:55;;;;;;;25.75;12.45;;;;;;;20.75;64.51;100549.13;6002529;23;20035;-77
2023/10/15 02:51:26;;;;;;;19.75;12.02;;;;;;;20.64;64.41;100538.97;6014738;23;20361;-78
2023/10/15 02:54:09;;;;;;;17.52;10.60;;;;;;;20.70;65.68;100549.78;6021014;23;20459;-76
2023/10/15 02:56:36;;;;;;;22.73;10.77;;;;;;;20.94;65.40;100570.97;6013147;23;20478;-78
2023/10/15 02:59:03;;;;;;;19.33;10.85;;;;;;;20.92;64.70;100553.13;6012929;23;20078;-78
2023/10/15 03:01:34;;;;;;;19.15;12.40;;;;;;;20.82;64.60;100538.38;6008204;23;20226;-78
2023/10/15 03:04:09;;;;;;;25.48;11.95;;;;;;;20.84;64.26;100544.41;6017751;23;20037;-79
2023/10/15 03:06:41;;;;;;;19.23;11.45;;;;;;;20.91;64.51;100566.81;6018180;23;20287;-77
2023/10/15 03:09:11;;;;;;;20.23;11.32;;;;;;;20.84;64.74;100555.19;6010880;23;20026;-77
2023/10/15 03:11:38;;;;;;;20.02;12.32;;;;;;;20.75;65.17;100551.00;6006915;23;20363;-78
2023/10/15 03:14:06;;;;;;;20.58;11.85;;;;;;;20.78;65.93;100562.25;6016008;23;20535;-78
2023/10/15 03:16:34;;;;;;;17.50;11.55;;;;;;;20.74;65.99;100543.97;6007083;23;20084;-78
2023/10/15 03:19:09;;;;;;;20.15;12.15;;;;;;;20.90;65.73;100559.78;6003027;23;20102;-78
2023/10/15 03:21:39;;;;;;;24.15;12.60;;;;;;;20.81;65.20;100534.03;6059220;23;20023;-77
2023/10/15 03:24:17;;;;;;;20.77;12.10;;;;;;;20.89;64.97;100563.50;6002886;23;20458;-76
2023/10/15 03:26:49;;;;;;;18.20;11.40;;;;;;;20.83;65.55;100567.03;6007002;23;20246;-78
2023/10/15 03:29:16;;;;;;;31.08;12.07;;;;;;;20.84;65.62;100563.28;6018554;23;20588;-76
2023/10/15 03:31:48;;;;;;;20.50;11.77;;;;;;;20.83;66.07;100548.16;6005022;23;20085;-76
2023/10/15 03:34:21;;;;;;;19.58;12.48;;;;;;;20.71;65.91;100529.03;6005456;23;20455;-77
2023/10/15 03:37:00;;;;;;;21.83;11.68;;;;;;;20.85;65.96;100556.84;6002053;23;20058;-76
2023/10/15 03:44:49;;;;;;;15.05;10.70;;;;;;;20.82;66.23;100560.78;6022803;23;20019;-76
2023/10/15 03:47:22;;;;;;;15.95;11.32;;;;;;;20.62;66.09;100541.84;6002664;23;20030;-76
2023/10/15 03:49:55;;;;;;;23.73;12.23;;;;;;;20.82;66.38;100557.25;6006085;23;20330;-77
2023/10/15 03:52:22;;;;;;;21.15;12.20;;;;;;;20.75;66.24;100554.53;6057642;23;20030;-76
2023/10/15 03:54:50;;;;;;;27.45;12.85;;;;;;;20.09;66.09;100449.19;6036234;23;20355;-76
2023/10/15 03:57:27;;;;;;;20.02;11.93;;;;;;;20.58;66.01;100526.28;6034862;23;20086;-77
2023/10/15 03:59:58;;;;;;;25.75;12.10;;;;;;;20.85;66.06;100562.22;6031104;23;20034;-77
2023/10/15 04:05:20;;;;;;;18.25;12.00;;;;;;;20.90;66.59;100554.38;6014177;23;20027;-77
2023/10/15 04:07:48;;;;;;;22.67;12.57;;;;;;;20.87;65.25;100554.78;5994475;23;20342;-76
2023/10/15 04:10:34;;;;;;;24.90;12.02;;;;;;;20.79;65.23;100552.28;6005543;23;20201;-77
2023/10/15 04:13:04;;;;;;;20.95;12.82;;;;;;;20.86;65.39;100563.91;6039198;23;20026;-77
2023/10/15 04:15:34;;;;;;;19.83;12.43;;;;;;;20.82;65.09;100549.16;6008085;23;20015;-78
2023/10/15 04:18:01;;;;;;;19.33;11.07;;;;;;;20.72;65.33;100546.84;6003990;23;20074;-76
2023/10/15 04:20:35;;;;;;;19.05;12.75;;;;;;;20.85;65.24;100556.84;6008093;23;20404;-76
2023/10/15 04:23:03;;;;;;;27.23;12.40;;;;;;;20.83;65.06;100564.34;6007652;23;20075;-78
2023/10/15 04:25:33;;;;;;;20.00;11.23;;;;;;;20.61;64.98;100534.00;5994777;23;20019;-76
2023/10/15 04:28:18;;;;;;;25.60;12.07;;;;;;;20.77;64.85;100562.44;6008333;23;20054;-78
2023/10/15 04:30:46;;;;;;;21.05;12.27;;;;;;;20.62;65.00;100558.03;6025764;23;20081;-77
2023/10/15 04:33:18;;;;;;;22.02;12.40;;;;;;;20.60;65.21;100554.72;6001340;23;20026;-76
2023/10/15 04:35:49;;;;;;;18.88;11.02;;;;;;;20.41;65.53;100528.50;6000045;23;20029;-77
2023/10/15 04:38:21;;;;;;;18.63;11.68;;;;;;;20.52;65.48;100549.47;6005510;23;20450;-76
2023/10/15 04:43:25;;;;;;;19.83;11.68;;;;;;;20.35;65.76;100532.84;6033866;23;20353;-78
2023/10/15 04:46:02;;;;;;;18.52;10.68;;;;;;;20.37;65.68;100540.72;6008089;23;20455;-77
2023/10/15 04:48:36;;;;;;;22.25;11.85;;;;;;;20.41;65.62;100544.66;5997989;23;20078;-78
2023/10/15 04:51:12;;;;;;;19.15;10.95;;;;;;;20.43;65.70;100534.50;5996701;23;20098;-77
2023/10/15 04:53:49;;;;;;;20.98;10.70;;;;;;;20.38;65.59;100531.59;6000741;23;20019;-77
2023/10/15 04:56:17;;;;;;;25.40;12.10;;;;;;;20.16;66.07;100502.06;6057052;23;20019;-77
2023/10/15 04:58:43;;;;;;;32.17;13.85;;;;;;;20.21;66.16;100523.03;5994108;23;20255;-78
2023/10/15 05:01:11;;;;;;;18.63;11.38;;;;;;;19.71;66.74;100442.44;5997635;23;20026;-76
2023/10/15 05:03:38;;;;;;;18.75;11.48;;;;;;;20.47;68.19;100539.31;6007543;23;20440;-78
2023/10/15 05:06:10;;;;;;;17.50;10.45;;;;;;;20.69;67.78;100531.91;5998532;23;20027;-78
2023/10/15 05:08:40;;;;;;;18.42;11.73;;;;;;;20.67;65.73;100531.28;5993934;23;20414;-78
2023/10/15 05:11:09;;;;;;;17.83;10.85;;;;;;;20.53;65.47;100515.25;6007706;23;20090;-78
2023/10/15 05:13:36;;;;;;;25.10;12.45;;;;;;;20.46;65.50;100531.41;6010968;23;20083;-77
2023/10/15 05:16:04;;;;;;;18.77;10.93;;;;;;;20.35;66.31;100529.31;5997995;23;20082;-77
2023/10/15 05:18:32;;;;;;;18.35;10.63;;;;;;;20.31;66.24;100533.44;5998504;23;20107;-77
2023/10/15 05:21:05;;;;;;;28.50;12.38;;;;;;;20.21;66.44;100531.94;5998338;23;20034;-77
2023/10/15 05:23:33;;;;;;;20.25;10.82;;;;;;;20.17;66.58;100533.41;6007869;23;20021;-78
2023/10/15 05:26:03;;;;;;;18.27;10.85;;;;;;;20.16;66.71;100534.41;6000709;23;20455;-78
2023/10/15 05:28:31;;;;;;;18.20;11.50;;;;;;;20.06;66.95;100542.88;6014950;23;20028;-79
2023/10/15 05:30:58;;;;;;;22.63;11.50;;;;;;;20.06;67.23;100536.66;6009725;23;20474;-78
2023/10/15 05:33:25;;;;;;;18.17;10.70;;;;;;;20.18;67.40;100534.22;5993727;23;20558;-78
2023/10/15 05:35:52;;;;;;;17.42;10.95;;;;;;;20.07;67.01;100514.06;6009701;23;20043;-77
2023/10/15 05:38:18;;;;;;;14.95;10.32;;;;;;;20.19;66.69;100542.09;5998738;23;20027;-78
2023/10/15 05:40:46;;;;;;;22.45;12.07;;;;;;;20.09;67.11;100541.63;5993197;23;20020;-76
2023/10/15 05:43:17;;;;;;;18.23;11.55;;;;;;;20.04;67.26;100544.94;6015991;23;20019;-78
2023/10/15 05:45:47;;;;;;;19.83;11.70;;;;;;;20.00;67.60;100553.59;6034944;23;20046;-77
2023/10/15 05:48:17;;;;;;;22.92;11.27;;;;;;;19.94;67.95;100544.47;6000238;23;20019;-78
2023/10/15 05:50:49;;;;;;;19.30;11.05;;;;;;;19.78;68.25;100520.53;6003036;23;20027;-78
2023/10/15 05:53:16;;;;;;;21.60;10.45;;;;;;;20.02;68.06;100547.00;6004497;23;20019;-78
2023/10/15 05:55:44;;;;;;;25.05;11.07;;;;;;;20.02;67.90;100546.16;6018899;23;20026;-77
2023/10/15 05:58:12;;;;;;;21.88;11.40;;;;;;;20.04;67.90;100546.81;6008296;23;20079;-78
2023/10/15 06:00:39;;;;;;;23.17;11.18;;;;;;;19.95;67.94;100545.28;6005285;23;20030;-78
2023/10/15 06:03:08;;;;;;;17.08;11.43;;;;;;;19.95;68.55;100545.28;5999295;23;20038;-77
2023/10/15 06:05:36;;;;;;;20.00;12.38;;;;;;;19.82;68.60;100530.72;5991324;23;20027;-76
2023/10/15 06:08:04;;;;;;;30.10;13.30;;;;;;;19.91;68.46;100538.66;6006715;23;20020;-78
2023/10/15 06:10:34;;;;;;;19.08;12.15;;;;;;;20.09;68.43;100568.59;6001047;23;20359;-76
2023/10/15 06:13:01;;;;;;;22.13;11.13;;;;;;;20.16;68.26;100565.94;6009480;23;20039;-78
2023/10/15 06:15:28;;;;;;;21.05;12.40;;;;;;;20.21;68.45;100572.38;5993452;23;20110;-77
2023/10/15 06:17:55;;;;;;;20.08;11.38;;;;;;;20.24;68.04;100571.13;6000730;23;20081;-77
2023/10/15 06:20:24;;;;;;;21.35;11.32;;;;;;;20.24;68.08;100576.53;5996995;23;20444;-78
2023/10/15 06:22:55;;;;;;;22.45;10.55;;;;;;;20.15;67.96;100556.19;6001997;23;20023;-78
2023/10/15 06:25:24;;;;;;;24.15;11.63;;;;;;;20.02;67.94;100540.78;6001436;23;20023;-76
2023/10/15 06:27:51;;;;;;;21.42;11.80;;;;;;;20.21;68.06;100561.59;6008323;23;20168;-78
2023/10/15 06:30:19;;;;;;;20.80;11.55;;;;;;;20.23;68.65;100559.53;5993500;23;20023;-78
2023/10/15 06:32:57;;;;;;;22.90;11.18;;;;;;;20.33;68.47;100571.81;5996696;23;20208;-77
2023/10/15 06:35:32;;;;;;;16.55;11.30;;;;;;;20.36;67.89;100569.53;5973646;23;20489;-78
2023/10/15 06:37:59;;;;;;;18.42;11.88;;;;;;;20.33;68.13;100569.13;6014155;23;20051;-78
2023/10/15 06:40:28;;;;;;;21.90;10.85;;;;;;;20.28;67.73;100561.63;5983649;23;20388;-77
2023/10/15 06:43:02;;;;;;;18.35;11.55;;;;;;;20.46;67.52;100574.53;6005961;23;20224;-78
2023/10/15 06:45:31;;;;;;;22.33;11.88;;;;;;;20.45;67.17;100564.81;5998354;23;20269;-78
2023/10/15 06:48:03;;;;;;;24.45;11.60;;;;;;;20.59;66.88;100579.22;5992014;23;20024;-79
2023/10/15 06:50:33;;;;;;;14.30;10.68;;;;;;;20.70;66.22;100586.69;6027349;23;20176;-78
2023/10/15 06:53:01;;;;;;;19.38;11.10;;;;;;;20.50;65.39;100524.56;6005292;23;20460;-78
2023/10/15 06:55:35;;;;;;;25.08;11.70;;;;;;;20.85;66.04;100578.41;6026771;23;20027;-78
2023/10/15 06:58:03;;;;;;;26.73;13.70;;;;;;;20.87;65.77;100573.66;6017299;23;20023;-79
2023/10/15 07:00:31;;;;;;;21.25;13.25;;;;;;;20.86;64.20;100547.72;6007105;23;20261;-77
2023/10/15 07:02:58;;;;;;;33.60;16.73;;;;;;;20.98;64.22;100578.47;6001546;23;20050;-78
2023/10/15 07:05:28;;;;;;;19.40;13.60;;;;;;;20.84;64.93;100556.00;5997959;23;20164;-78
2023/10/15 07:07:58;;;;;;;25.27;14.50;;;;;;;21.03;64.10;100581.38;5987429;23;20541;-77
2023/10/15 07:10:27;;;;;;;28.35;15.32;;;;;;;21.08;64.25;100589.69;5993823;23;20192;-79
2023/10/15 07:12:55;;;;;;;28.13;15.60;;;;;;;21.10;63.99;100582.22;6015764;23;20042;-79
2023/10/15 07:15:24;;;;;;;25.55;14.93;;;;;;;21.13;64.25;100586.38;6005708;23;20019;-78
2023/10/15 07:17:53;;;;;;;20.42;11.45;;;;;;;21.18;64.98;100591.16;5993354;23;20055;-78
2023/10/15 07:20:24;;;;;;;21.23;13.60;;;;;;;21.26;64.27;100599.03;5981919;23;20023;-78
2023/10/15 07:22:53;;;;;;;38.45;18.77;;;;;;;21.29;64.33;100590.53;6002741;23;20561;-78
2023/10/15 07:25:21;;;;;;;28.38;16.02;;;;;;;21.34;64.23;100588.03;5993677;23;20024;-78
2023/10/15 07:27:50;;;;;;;22.42;15.55;;;;;;;21.03;63.97;100532.78;5986685;23;20462;-78
2023/10/15 07:30:20;;;;;;;31.90;15.57;;;;;;;21.42;63.83;100582.47;6001682;23;20083;-78
2023/10/15 07:32:53;;;;;;;29.17;17.35;;;;;;;21.29;63.42;100547.34;6007830;23;20467;-78
2023/10/15 07:35:21;;;;;;;30.08;16.98;;;;;;;21.33;62.96;100551.28;6029651;23;20019;-78
2023/10/15 07:37:53;;;;;;;27.85;17.20;;;;;;;21.48;63.11;100578.94;6016110;23;20025;-78
2023/10/15 07:40:22;;;;;;;31.45;16.38;;;;;;;21.65;62.58;100589.28;5998045;23;20339;-79
2023/10/15 07:42:51;;;;;;;25.05;13.70;;;;;;;21.34;63.21;100544.84;6032614;23;20395;-79
2023/10/15 07:45:28;;;;;;;25.92;14.57;;;;;;;21.51;63.12;100567.72;6012695;23;20049;-78
2023/10/15 07:48:01;;;;;;;21.27;12.73;;;;;;;21.70;63.13;100592.19;6041305;23;20388;-78
2023/10/15 07:50:30;;;;;;;41.42;15.48;;;;;;;21.71;63.08;100591.16;6015945;23;20035;-79
2023/10/15 07:52:58;;;;;;;28.75;14.70;;;;;;;21.66;62.01;100575.59;6029963;23;20719;-79
2023/10/15 07:55:26;;;;;;;28.35;14.80;;;;;;;21.78;61.95;100589.28;6038119;23;20463;-79
2023/10/15 07:57:53;;;;;;;26.27;14.77;;;;;;;21.53;61.81;100553.97;6001509;23;20035;-77
2023/10/15 08:00:25;;;;;;;25.42;14.90;;;;;;;21.78;62.00;100583.88;6007207;23;20038;-78
2023/10/15 08:02:57;;;;;;;34.55;14.90;;;;;;;21.85;61.70;100594.69;6006692;23;20452;-77
2023/10/15 08:05:25;;;;;;;22.73;16.15;;;;;;;21.66;61.91;100570.19;6031274;23;20019;-77
2023/10/15 08:07:52;;;;;;;19.13;11.95;;;;;;;21.69;62.76;100571.63;6016785;23;20069;-77
2023/10/15 08:10:21;;;;;;;30.38;16.75;;;;;;;21.86;62.39;100589.06;6004669;23;20090;-78
2023/10/15 08:12:52;;;;;;;28.65;17.02;;;;;;;21.80;62.13;100564.75;6031220;23;20050;-78
2023/10/15 08:15:20;;;;;;;29.15;16.17;;;;;;;21.84;61.90;100564.09;6004769;23;20019;-78
2023/10/15 08:17:47;;;;;;;32.17;17.60;;;;;;;22.07;62.10;100587.16;6018655;23;20034;-78
2023/10/15 08:20:14;;;;;;;34.20;17.35;;;;;;;21.92;62.08;100577.41;6019977;23;20083;-76
2023/10/15 08:22:44;;;;;;;20.45;12.73;;;;;;;22.06;63.52;100585.47;6017878;23;20331;-78
2023/10/15 08:25:21;;;;;;;27.75;16.52;;;;;;;22.18;62.94;100589.19;6008167;23;20440;-78
2023/10/15 08:27:49;;;;;;;33.15;18.48;;;;;;;22.26;63.03;100586.28;5989392;23;20594;-78
2023/10/15 08:30:17;;;;;;;22.02;13.73;;;;;;;21.96;62.77;100521.03;6005769;23;20205;-78
2023/10/15 08:32:46;;;;;;;29.90;16.95;;;;;;;22.37;62.71;100579.38;6002273;23;20020;-78
2023/10/15 08:35:15;;;;;;;27.40;15.90;;;;;;;22.34;63.08;100567.09;6024034;23;20695;-77
2023/10/15 08:37:43;;;;;;;29.92;16.85;;;;;;;22.50;62.43;100581.16;6010308;23;20107;-78
2023/10/15 08:40:17;;;;;;;27.10;17.13;;;;;;;22.53;62.24;100576.19;6004523;23;20102;-78
2023/10/15 08:42:56;;;;;;;30.75;16.58;;;;;;;22.54;62.85;100572.41;6025369;23;20034;-79
2023/10/15 08:45:27;;;;;;;28.30;17.50;;;;;;;22.63;62.69;100570.28;6027316;23;20024;-78
2023/10/15 08:47:55;;;;;;;;;;;;;;;22.67;61.84;100571.53;6010190;23;20535;-77
2023/10/15 08:50:27;;;;;;;16.73;12.95;;;;;;;22.67;62.92;100565.28;5999823;23;19924;-78
2023/10/15 08:52:59;;;;;;;29.50;17.20;;;;;;;22.80;61.94;100559.78;6005153;23;20023;-77
2023/10/15 08:55:29;;;;;;;22.67;14.13;;;;;;;22.86;61.60;100558.91;6001515;23;20024;-77
2023/10/15 08:57:56;;;;;;;32.42;18.25;;;;;;;22.91;61.97;100569.06;6000318;23;20035;-79
2023/10/15 09:00:28;;;;;;;30.05;17.30;;;;;;;22.98;61.98;100567.19;6007535;23;20094;-76
2023/10/15 09:03:02;;;;;;;30.58;18.08;;;;;;;;;;6033958;23;20565;-76
2023/10/15 09:05:33;;;;;;;28.02;18.20;;;;;;;22.79;61.01;100494.03;6044295;23;20106;-78
2023/10/15 09:08:10;;;;;;;37.03;18.20;;;;;;;23.19;61.03;100553.28;5977402;23;20456;-77
2023/10/15 09:10:42;;;;;;;25.08;17.33;;;;;;;23.09;60.70;100528.59;6007763;23;20312;-78
2023/10/15 09:13:18;;;;;;;30.27;18.35;;;;;;;23.24;60.88;100545.31;6011304;23;20512;-76
2023/10/15 09:15:47;;;;;;;30.23;17.80;;;;;;;23.34;60.54;100565.66;6010458;23;20031;-77
2023/10/15 09:18:17;;;;;;;33.17;18.10;;;;;;;23.43;60.63;100567.06;6015428;23;20027;-77
2023/10/15 09:20:51;;;;;;;33.53;19.52;;;;;;;23.30;60.78;100537.34;5984386;23;20027;-77
2023/10/15 09:23:23;;;;;;;18.90;12.48;;;;;;;23.47;61.19;100570.94;6011563;23;20019;-78
2023/10/15 09:25:55;;;;;;;25.42;14.45;;;;;;;23.38;61.37;100550.63;6008020;23;20377;-77
2023/10/15 09:28:29;;;;;;;32.28;18.23;;;;;;;23.55;61.53;100567.97;5998972;23;20102;-77
2023/10/15 09:31:09;;;;;;;27.05;17.33;;;;;;;23.53;61.26;100558.41;6008500;23;20027;-78
2023/10/15 09:33:43;;;;;;;33.28;16.63;;;;;;;23.65;60.84;100567.47;6001865;23;20092;-78
2023/10/15 09:36:12;;;;;;;25.08;15.45;;;;;;;23.61;61.09;100572.50;6000916;23;20471;-79
2023/10/15 09:38:39;;;;;;;30.65;18.65;;;;;;;23.30;60.96;100518.41;6006492;23;20023;-78
2023/10/15 09:41:12;;;;;;;33.70;18.33;;;;;;;23.18;61.09;100492.06;5985490;23;20035;-78
2023/10/15 09:43:48;;;;;;;31.92;17.20;;;;;;;23.64;60.72;100560.38;6008606;23;20468;-77
2023/10/15 09:46:16;;;;;;;33.97;18.60;;;;;;;23.63;60.57;100556.84;6005786;23;20031;-78
2023/10/15 09:48:46;;;;;;;24.60;15.55;;;;;;;23.35;60.97;100527.53;6006412;23;20106;-78
2023/10/15 09:51:16;;;;;;;39.03;17.42;;;;;;;23.58;61.37;100567.53;5996682;23;20026;-74
2023/10/15 09:53:46;;;;;;;25.92;14.60;;;;;;;23.57;61.37;100560.47;5998493;23;20023;-77
2023/10/15 09:56:19;;;;;;;23.73;15.93;;;;;;;23.59;61.21;100552.94;5997311;23;20038;-78
2023/10/15 09:58:49;;;;;;;25.38;16.67;;;;;;;23.75;61.25;100562.38;5993383;23;20082;-77
2023/10/15 10:01:28;;;;;;;26.58;17.20;;;;;;;23.75;61.17;100562.38;6001616;23;20504;-77
2023/10/15 10:04:15;;;;;;;34.80;17.65;;;;;;;23.83;60.95;100558.56;5996016;23;20091;-77
2023/10/15 10:06:48;;;;;;;36.28;17.85;;;;;;;23.87;61.06;100565.19;6003673;23;20024;-77
2023/10/15 10:09:21;;;;;;;28.85;15.98;;;;;;;23.92;60.45;100562.63;5995086;23;20047;-76
2023/10/15 10:12:07;;;;;;;31.52;18.05;;;;;;;23.96;60.06;100554.84;5990508;23;20075;-77
2023/10/15 10:14:49;;;;;;;31.73;16.50;;;;;;;23.83;60.48;100545.00;5994200;23;20027;-77
2023/10/15 10:17:21;;;;;;;29.80;17.20;;;;;;;23.91;61.12;100555.56;6002654;23;20030;-78
2023/10/15 10:19:52;;;;;;;35.33;18.88;;;;;;;23.97;60.57;100560.06;5992734;23;20475;-79
2023/10/15 10:22:23;;;;;;;37.95;17.85;;;;;;;23.97;60.16;100554.66;5994243;23;20049;-78
2023/10/15 10:24:55;;;;;;;38.70;17.90;;;;;;;23.74;59.84;100516.53;6010804;23;20035;-79
2023/10/15 10:27:22;;;;;;;28.15;16.58;;;;;;;23.79;60.31;100544.63;5993845;23;20094;-76
2023/10/15 10:29:58;;;;;;;27.17;16.05;;;;;;;23.87;60.84;100548.94;5984288;23;20439;-78
2023/10/15 10:32:30;;;;;;;31.63;16.95;;;;;;;23.86;61.14;100553.53;5996887;23;20089;-78
2023/10/15 10:35:20;;;;;;;26.30;17.30;;;;;;;23.94;60.27;100552.41;6013880;23;20022;-77
2023/10/15 10:38:10;;;;;;;32.90;16.70;;;;;;;23.96;60.15;100544.88;6008012;23;20092;-78
2023/10/15 10:40:52;;;;;;;25.30;15.38;;;;;;;24.14;60.19;100549.44;6006076;23;20098;-77
2023/10/15 10:43:24;;;;;;;27.90;16.95;;;;;;;23.96;60.21;100515.03;6033573;23;20019;-77
2023/10/15 10:46:00;;;;;;;33.42;17.55;;;;;;;24.29;60.38;100554.47;5996958;23;20067;-78
2023/10/15 10:48:33;;;;;;;30.75;18.88;;;;;;;24.27;59.40;100532.16;5994882;23;20024;-77
2023/10/15 10:51:21;;;;;;;28.92;17.02;;;;;;;23.80;58.89;100456.00;6008735;23;20051;-77
2023/10/15 10:53:59;;;;;;;29.88;15.38;;;;;;;24.43;59.18;100555.97;6005577;23;20023;-78
2023/10/15 10:56:38;;;;;;;30.90;18.25;;;;;;;24.49;58.67;100546.94;5999361;23;20034;-77
2023/10/15 10:59:06;;;;;;;33.70;15.85;;;;;;;24.44;58.69;100541.34;6011419;23;20028;-78
2023/10/15 11:01:41;;;;;;;41.97;18.73;;;;;;;24.48;58.62;100542.56;6014174;23;20478;-79
2023/10/15 11:04:17;;;;;;;34.28;18.85;;;;;;;24.35;58.43;100521.00;6049039;23;20023;-76
2023/10/15 11:06:48;;;;;;;32.88;18.85;;;;;;;24.41;58.81;100538.25;6003675;23;20215;-79
2023/10/15 11:09:15;;;;;;;40.10;19.20;;;;;;;24.41;58.38;100530.13;6007521;23;20020;-78
2023/10/15 11:11:45;;;;;;;27.23;16.70;;;;;;;24.34;58.90;100532.91;6006507;23;20376;-79
2023/10/15 11:14:13;;;;;;;34.95;20.08;;;;;;;24.28;59.49;100531.94;6011414;23;20344;-78
2023/10/15 11:16:42;;;;;;;39.42;20.02;;;;;;;24.06;59.83;100504.47;5999703;23;20034;-77
2023/10/15 11:19:18;;;;;;;35.75;18.35;;;;;;;24.19;60.25;100524.34;5997321;23;20027;-79
2023/10/15 11:21:50;;;;;;;32.65;19.02;;;;;;;24.30;59.23;100516.28;6007870;23;20031;-78
2023/10/15 11:24:22;;;;;;;28.75;15.88;;;;;;;24.34;59.95;100522.06;5995679;23;20397;-78
2023/10/15 11:26:54;;;;;;;32.33;17.38;;;;;;;24.29;59.84;100514.59;6000486;23;20023;-79
2023/10/15 11:29:24;;;;;;;30.98;17.00;;;;;;;24.15;60.11;100487.88;5997492;23;20195;-80
2023/10/15 11:31:56;;;;;;;30.35;16.67;;;;;;;24.27;59.62;100516.75;6000296;23;20027;-79
2023/10/15 11:34:28;;;;;;;32.50;16.25;;;;;;;24.25;59.05;100523.47;5998717;23;20054;-78
2023/10/15 11:36:56;;;;;;;20.55;15.23;;;;;;;24.23;59.57;100514.72;5989994;23;20034;-79
2023/10/15 11:42:11;;;;;;;31.58;16.35;;;;;;;24.20;59.13;100509.72;6003945;23;20361;-78
2023/10/15 11:44:43;;;;;;;35.63;17.35;;;;;;;24.15;59.48;100491.41;5990602;23;20236;-78
2023/10/15 11:47:15;;;;;;;23.27;14.55;;;;;;;24.26;59.72;100489.84;5993135;23;20440;-78
2023/10/15 11:49:50;;;;;;;27.27;14.80;;;;;;;24.32;59.67;100513.31;5984902;23;20471;-79
2023/10/15 11:52:22;;;;;;;28.77;18.70;;;;;;;24.26;59.36;100492.56;5985473;23;20290;-80
2023/10/15 11:54:49;;;;;;;26.40;15.98;;;;;;;24.34;58.92;100500.34;5983120;23;20219;-79
2023/10/15 11:57:23;;;;;;;29.17;14.30;;;;;;;24.18;58.44;100479.31;5995706;23;20029;-79
2023/10/15 11:59:52;;;;;;;28.35;14.63;;;;;;;24.37;58.88;100513.47;5995141;23;20504;-80